Terminal Aerodrome Forecast
Issued by NWS Shreveport, LA

Home | Current Version | Previous Version | Text Only | Print | Product List | Glossary On
Versions: 1 2 3 4 5 6 7 8 9 10 11 12 13 14 15 16
425
FTUS44 KSHV 232342
TAFELD
TAF
KELD 232342Z 2400/2424 03005KT P6SM VCTS SCT040CB
     FM240300 03005KT P6SM SCT045 SCT120 SCT250
     FM240500 05005KT P6SM SCT150 BKN250
     FM241500 05007KT P6SM SCT040 SCT200=

USA.gov is the U.S. government's official web portal to all federal, state and local government web resources and services.